Decoded Metar for KNAK (ANNAPOLIS/NAVAL in MD, USA) (IATA:NAK) | Meteo·Mobile Aviation Weather
aviador You're here:

KNAK Decoded Metar

ANNAPOLIS/NAVAL in MD, USA
Report Time2018-11-20 05:10:00
UTC Time2018-11-20 05:38:35
Flight Rules ifr IFR
WindCalm
Visibility2414 m
Phenomena:Mist
Clouds:N/A
Expected CloudBase > 400 ft AGL from Temp-Dew spread
CeilingNone
Temp09°C (ISA -6)
Dew Point08°C (94% RH)
AAT8.6°C
QNH1012 hPa
Density Alt-531 ft
Elevation7 ft
Report Wrong Elevation
Raw Report
KNAK 200510Z AUTO 00000KT 1 1/2SM BR CLR 09/08 A2989=

Extra information for KNAK:More info

Metar Taf Metar & Taf Last 4 Metars F.Rules Stats Wind Profile Meteogram Temp Stats Airport Information Weather charts Add Link Nearby VenuesMetar ALERT Operation Metar Decoded Social comments

AIRNAV info for KNAK